Time;durP1;ratioP1;P1;durP2;ratioP2;P2;SDS_P1;SDS_P2;PMS_P1;PMS_P2;Temp;Humidity;BMP_temperature;BMP_pressure;BME280_temperature;BME280_humidity;BME280_pressure;Samples;Min_cycle;Max_cycle;Signal;HPM_P1;HPM_P2
2023/05/11 00:00:08;;;;;;;4.97;2.35;;;;;;;;;;5111512;28;20055;-63
2023/05/11 00:02:34;;;;;;;3.92;1.52;;;;;;;;;;5110792;28;20105;-62
2023/05/11 00:05:00;;;;;;;4.75;2.00;;;;;;;;;;5111184;28;20020;-66
2023/05/11 00:07:26;;;;;;;6.53;2.17;;;;;;;;;;5111966;28;20024;-69
2023/05/11 00:09:52;;;;;;;5.07;2.13;;;;;;;;;;5111841;28;20535;-68
2023/05/11 00:12:18;;;;;;;3.50;1.52;;;;;;;;;;5111581;28;20051;-69
2023/05/11 00:14:44;;;;;;;4.65;1.88;;;;;;;;;;5111181;28;20384;-60
2023/05/11 00:17:10;;;;;;;6.28;2.47;;;;;;;;;;5111509;28;20032;-63
2023/05/11 00:19:36;;;;;;;4.25;1.75;;;;;;;;;;5110720;28;20434;-69
2023/05/11 00:22:02;;;;;;;5.70;1.98;;;;;;;;;;5111509;28;20032;-59
2023/05/11 00:24:28;;;;;;;6.78;2.28;;;;;;;;;;5111166;28;20027;-57
2023/05/11 00:26:55;;;;;;;7.80;2.33;;;;;;;;;;5111754;28;20024;-59
2023/05/11 00:29:21;;;;;;;6.57;2.50;;;;;;;;;;5111345;28;20051;-60
2023/05/11 00:31:47;;;;;;;5.35;2.17;;;;;;;;;;5111018;28;20479;-70
2023/05/11 00:34:14;;;;;;;5.57;2.55;;;;;;;;;;5110680;28;20036;-68
2023/05/11 00:36:41;;;;;;;4.05;1.98;;;;;;;;;;5111186;28;20034;-68
2023/05/11 00:39:07;;;;;;;5.03;2.08;;;;;;;;;;5111138;28;20111;-61
2023/05/11 00:41:33;;;;;;;4.95;1.77;;;;;;;;;;5110921;28;20042;-69
2023/05/11 00:43:59;;;;;;;4.25;1.80;;;;;;;;;;5111311;28;20028;-68
2023/05/11 00:46:27;;;;;;;6.88;2.05;;;;;;;;;;5111280;28;20023;-60
2023/05/11 00:48:53;;;;;;;4.07;1.77;;;;;;;;;;5113756;28;20092;-58
2023/05/11 00:51:19;;;;;;;4.82;2.00;;;;;;;;;;5115268;28;20048;-70
2023/05/11 00:53:45;;;;;;;7.20;2.15;;;;;;;;;;5115005;28;20027;-68
2023/05/11 00:56:11;;;;;;;4.90;2.50;;;;;;;;;;5115142;28;20145;-59
2023/05/11 00:58:38;;;;;;;5.38;2.70;;;;;;;;;;5114935;28;20028;-59
2023/05/11 01:01:04;;;;;;;6.18;2.17;;;;;;;;;;5114424;28;20028;-70
2023/05/11 01:03:30;;;;;;;4.93;2.13;;;;;;;;;;5114920;28;20027;-63
2023/05/11 01:06:02;;;;;;;5.07;1.55;;;;;;;;;;5115313;28;20020;-64
2023/05/11 01:08:36;;;;;;;6.55;2.28;;;;;;;;;;5114723;28;20046;-56
2023/05/11 01:11:25;;;;;;;4.78;1.92;;;;;;;;;;5114560;28;20024;-63
2023/05/11 01:14:06;;;;;;;4.32;2.08;;;;;;;;;;5114520;27;20019;-70
2023/05/11 01:16:34;;;;;;;5.53;2.08;;;;;;;;;;5114190;28;20092;-67
2023/05/11 01:19:03;;;;;;;6.90;2.30;;;;;;;;;;5114593;28;20027;-63
2023/05/11 01:21:33;;;;;;;5.18;1.88;;;;;;;;;;5114224;28;20043;-62
2023/05/11 01:24:17;;;;;;;6.95;2.22;;;;;;;;;;5114585;28;20028;-67
2023/05/11 01:26:43;;;;;;;4.10;1.60;;;;;;;;;;5113845;28;20506;-60
2023/05/11 01:29:28;;;;;;;4.32;1.60;;;;;;;;;;5114498;28;20112;-63
2023/05/11 01:31:55;;;;;;;5.47;1.97;;;;;;;;;;5114784;28;20024;-65
2023/05/11 01:34:23;;;;;;;3.83;1.60;;;;;;;;;;5114298;27;20039;-59
2023/05/11 01:36:51;;;;;;;5.68;2.20;;;;;;;;;;5114091;28;20011;-69
2023/05/11 01:39:20;;;;;;;3.90;1.60;;;;;;;;;;5114354;28;20036;-59
2023/05/11 01:41:51;;;;;;;4.07;1.60;;;;;;;;;;5113481;28;20036;-58
2023/05/11 01:44:18;;;;;;;4.00;1.42;;;;;;;;;;5114190;28;20026;-69
2023/05/11 01:46:44;;;;;;;5.20;2.08;;;;;;;;;;5113921;28;20027;-63
2023/05/11 01:49:12;;;;;;;4.35;1.83;;;;;;;;;;5113999;28;20016;-66
2023/05/11 01:51:39;;;;;;;4.55;1.77;;;;;;;;;;5113793;28;20046;-61
2023/05/11 01:54:06;;;;;;;6.13;2.05;;;;;;;;;;5113895;28;20034;-63
2023/05/11 01:56:34;;;;;;;6.68;2.08;;;;;;;;;;5113110;28;20015;-63
2023/05/11 01:59:00;;;;;;;5.63;1.80;;;;;;;;;;5113417;28;20023;-67
2023/05/11 02:01:26;;;;;;;5.03;1.60;;;;;;;;;;5114054;27;20039;-67
2023/05/11 02:03:53;;;;;;;5.00;1.70;;;;;;;;;;5114042;27;20049;-67
2023/05/11 02:06:20;;;;;;;5.97;2.10;;;;;;;;;;5113860;28;20034;-62
2023/05/11 02:08:47;;;;;;;3.95;1.60;;;;;;;;;;5113210;28;20368;-61
2023/05/11 02:11:13;;;;;;;4.28;2.00;;;;;;;;;;5113606;28;20023;-59
2023/05/11 02:13:41;;;;;;;5.43;1.65;;;;;;;;;;5113463;28;20028;-61
2023/05/11 02:16:08;;;;;;;5.40;1.60;;;;;;;;;;5113459;28;20098;-66
2023/05/11 02:18:34;;;;;;;4.70;2.10;;;;;;;;;;5113502;28;20045;-62
2023/05/11 02:21:01;;;;;;;6.25;2.13;;;;;;;;;;5113363;28;20077;-68
2023/05/11 02:23:27;;;;;;;6.05;2.13;;;;;;;;;;5113592;28;20023;-59
2023/05/11 02:25:53;;;;;;;4.50;1.85;;;;;;;;;;5113441;28;20102;-70
2023/05/11 02:28:20;;;;;;;4.70;1.55;;;;;;;;;;5113516;28;20027;-67
2023/05/11 02:30:47;;;;;;;3.88;1.70;;;;;;;;;;5113164;28;20020;-64
2023/05/11 02:33:19;;;;;;;6.68;2.00;;;;;;;;;;5113380;28;20027;-67
2023/05/11 02:35:46;;;;;;;5.07;1.70;;;;;;;;;;5113096;28;20022;-64
2023/05/11 02:38:12;;;;;;;6.03;2.28;;;;;;;;;;5112802;27;20027;-68
2023/05/11 02:40:45;;;;;;;4.72;1.77;;;;;;;;;;5112864;28;20034;-66
2023/05/11 02:43:12;;;;;;;5.32;1.70;;;;;;;;;;5113000;28;20032;-66
2023/05/11 02:45:41;;;;;;;6.10;2.00;;;;;;;;;;5112819;28;20020;-69
2023/05/11 02:48:09;;;;;;;4.70;2.17;;;;;;;;;;5113055;28;20394;-60
2023/05/11 02:50:37;;;;;;;5.47;1.80;;;;;;;;;;5112765;28;20027;-65
2023/05/11 02:53:06;;;;;;;4.68;2.00;;;;;;;;;;5112262;28;20035;-69
2023/05/11 02:55:32;;;;;;;5.63;1.70;;;;;;;;;;5112512;28;20443;-62
2023/05/11 02:57:58;;;;;;;5.32;1.77;;;;;;;;;;5112808;28;20483;-61
2023/05/11 03:00:24;;;;;;;4.82;1.38;;;;;;;;;;5113095;28;20095;-63
2023/05/11 03:02:50;;;;;;;4.93;1.92;;;;;;;;;;5111724;28;20193;-65
2023/05/11 03:05:16;;;;;;;3.72;1.45;;;;;;;;;;5112622;27;20023;-69
2023/05/11 03:07:42;;;;;;;5.10;1.75;;;;;;;;;;5112394;28;20084;-70
2023/05/11 03:10:09;;;;;;;5.18;1.92;;;;;;;;;;5111620;28;20077;-68
2023/05/11 03:12:35;;;;;;;5.43;1.98;;;;;;;;;;5112164;28;20514;-64
2023/05/11 03:15:02;;;;;;;5.65;1.73;;;;;;;;;;5112463;28;20026;-66
2023/05/11 03:17:29;;;;;;;3.63;1.52;;;;;;;;;;5112072;28;20036;-67
2023/05/11 03:19:56;;;;;;;5.63;2.08;;;;;;;;;;5112633;28;20027;-69
2023/05/11 03:22:23;;;;;;;5.43;1.90;;;;;;;;;;5112769;28;20042;-69
2023/05/11 03:24:50;;;;;;;5.40;1.70;;;;;;;;;;5112036;28;20057;-67
2023/05/11 03:27:16;;;;;;;3.40;1.42;;;;;;;;;;5112273;28;20031;-70
2023/05/11 03:29:44;;;;;;;4.53;1.63;;;;;;;;;;5111966;28;20028;-66
2023/05/11 03:32:10;;;;;;;5.72;1.98;;;;;;;;;;5111935;28;20027;-62
2023/05/11 03:34:36;;;;;;;5.75;1.42;;;;;;;;;;5111946;28;20149;-68
2023/05/11 03:37:03;;;;;;;6.05;1.80;;;;;;;;;;5112000;28;20058;-69
2023/05/11 03:39:30;;;;;;;4.78;1.55;;;;;;;;;;5111759;28;20073;-68
2023/05/11 03:41:56;;;;;;;5.35;1.67;;;;;;;;;;5111900;28;20036;-62
2023/05/11 03:44:23;;;;;;;3.30;1.30;;;;;;;;;;5112297;28;20123;-65
2023/05/11 03:46:49;;;;;;;4.55;1.42;;;;;;;;;;5111773;28;20062;-67
2023/05/11 03:49:17;;;;;;;3.42;1.40;;;;;;;;;;5111981;28;20026;-63
2023/05/11 03:51:44;;;;;;;4.07;1.52;;;;;;;;;;5111325;28;20055;-62
2023/05/11 03:54:10;;;;;;;5.65;1.83;;;;;;;;;;5111705;28;20020;-69
2023/05/11 03:56:36;;;;;;;5.70;2.00;;;;;;;;;;5111574;28;20034;-64
2023/05/11 03:59:03;;;;;;;3.20;1.50;;;;;;;;;;5111364;27;20046;-65
2023/05/11 04:01:30;;;;;;;4.57;1.73;;;;;;;;;;5111346;28;20106;-57
2023/05/11 04:03:56;;;;;;;5.28;1.70;;;;;;;;;;5111941;28;20031;-66
2023/05/11 04:06:22;;;;;;;5.03;2.15;;;;;;;;;;5111632;28;20468;-65
2023/05/11 04:08:49;;;;;;;5.35;1.45;;;;;;;;;;5111263;28;20426;-59
2023/05/11 04:11:15;;;;;;;5.15;1.35;;;;;;;;;;5111701;28;20047;-61
2023/05/11 04:13:41;;;;;;;7.22;1.83;;;;;;;;;;5110964;28;20074;-63
2023/05/11 04:16:07;;;;;;;4.85;1.83;;;;;;;;;;5111540;28;20025;-69
2023/05/11 04:18:33;;;;;;;4.65;1.70;;;;;;;;;;5111208;28;20020;-66
2023/05/11 04:21:00;;;;;;;5.95;1.63;;;;;;;;;;5111190;28;20042;-59
2023/05/11 04:23:26;;;;;;;6.20;1.90;;;;;;;;;;5111597;28;20032;-59
2023/05/11 04:25:54;;;;;;;5.07;1.55;;;;;;;;;;5110667;28;20047;-70
2023/05/11 04:28:22;;;;;;;4.25;1.63;;;;;;;;;;5111426;28;20372;-69
2023/05/11 04:30:52;;;;;;;5.13;1.55;;;;;;;;;;5110987;28;20107;-59
2023/05/11 04:33:19;;;;;;;5.55;1.55;;;;;;;;;;5110394;28;20100;-69
2023/05/11 04:35:45;;;;;;;5.25;1.45;;;;;;;;;;5111014;28;20407;-60
2023/05/11 04:38:11;;;;;;;5.15;1.55;;;;;;;;;;5111344;28;20047;-63
2023/05/11 04:40:37;;;;;;;6.68;1.50;;;;;;;;;;5111018;28;20471;-59
2023/05/11 04:43:03;;;;;;;4.35;1.58;;;;;;;;;;5111115;28;20039;-59
2023/05/11 04:45:29;;;;;;;5.93;1.90;;;;;;;;;;5110921;28;20020;-62
2023/05/11 04:47:54;;;;;;;3.47;1.40;;;;;;;;;;5110946;28;20067;-70
2023/05/11 04:50:21;;;;;;;4.53;2.03;;;;;;;;;;5111067;28;20374;-70
2023/05/11 04:52:47;;;;;;;4.05;1.60;;;;;;;;;;5110979;28;20529;-66
2023/05/11 04:55:13;;;;;;;4.78;1.50;;;;;;;;;;5111096;28;20034;-59
2023/05/11 04:57:39;;;;;;;4.72;1.50;;;;;;;;;;5110945;28;20024;-67
2023/05/11 05:00:08;;;;;;;3.42;1.27;;;;;;;;;;5110689;28;20398;-62
2023/05/11 05:02:34;;;;;;;4.78;1.83;;;;;;;;;;5110695;28;20040;-67
2023/05/11 05:05:00;;;;;;;5.90;1.73;;;;;;;;;;5110768;28;20031;-70
2023/05/11 05:07:26;;;;;;;4.35;1.73;;;;;;;;;;5111444;28;20038;-68
2023/05/11 05:09:52;;;;;;;5.70;1.52;;;;;;;;;;5111318;28;20499;-69
2023/05/11 05:12:18;;;;;;;5.45;2.17;;;;;;;;;;5109723;28;20443;-66
2023/05/11 05:14:44;;;;;;;4.75;1.67;;;;;;;;;;5110862;28;20023;-70
2023/05/11 05:17:10;;;;;;;4.28;1.50;;;;;;;;;;5110247;28;20026;-69
2023/05/11 05:19:36;;;;;;;7.32;1.90;;;;;;;;;;5110118;28;20448;-69
2023/05/11 05:22:03;;;;;;;6.97;2.03;;;;;;;;;;5110981;28;20035;-70
2023/05/11 05:24:29;;;;;;;4.50;1.60;;;;;;;;;;5110053;28;20019;-71
2023/05/11 05:26:55;;;;;;;6.65;1.65;;;;;;;;;;5110095;28;20031;-66
2023/05/11 05:29:21;;;;;;;6.50;1.65;;;;;;;;;;5110996;28;20042;-63
2023/05/11 05:31:47;;;;;;;8.90;2.70;;;;;;;;;;5110721;28;20164;-71
2023/05/11 05:34:13;;;;;;;3.92;1.80;;;;;;;;;;5111546;28;20107;-65
2023/05/11 05:36:39;;;;;;;5.95;1.95;;;;;;;;;;5114171;28;20032;-71
2023/05/11 05:39:10;;;;;;;4.40;1.80;;;;;;;;;;5114302;28;20023;-67
2023/05/11 05:41:36;;;;;;;6.68;1.88;;;;;;;;;;5114158;27;20089;-71
2023/05/11 05:44:02;;;;;;;5.70;1.88;;;;;;;;;;5114616;28;20023;-64
2023/05/11 05:46:28;;;;;;;5.30;1.85;;;;;;;;;;5112072;28;20110;-65
2023/05/11 05:48:55;;;;;;;5.53;1.60;;;;;;;;;;5114443;28;20107;-70
2023/05/11 05:51:21;;;;;;;4.05;1.60;;;;;;;;;;5114282;28;20065;-70
2023/05/11 05:53:47;;;;;;;4.82;2.20;;;;;;;;;;5113800;28;20031;-70
2023/05/11 05:56:13;;;;;;;6.97;2.30;;;;;;;;;;5114262;28;20019;-66
2023/05/11 05:58:39;;;;;;;9.20;1.92;;;;;;;;;;5113988;28;20024;-70
2023/05/11 06:01:05;;;;;;;7.13;1.90;;;;;;;;;;5113300;28;20053;-71
2023/05/11 06:03:32;;;;;;;7.85;2.47;;;;;;;;;;5113372;28;20024;-68
2023/05/11 06:05:58;;;;;;;4.32;1.98;;;;;;;;;;5112333;28;20123;-66
2023/05/11 06:08:24;;;;;;;6.22;2.53;;;;;;;;;;5113780;28;20122;-70
2023/05/11 06:10:50;;;;;;;7.00;2.45;;;;;;;;;;5113749;28;20027;-69
2023/05/11 06:13:16;;;;;;;8.00;3.10;;;;;;;;;;5113941;28;20070;-70
2023/05/11 06:15:42;;;;;;;4.65;2.00;;;;;;;;;;5113604;28;20051;-55
2023/05/11 06:18:08;;;;;;;5.50;2.40;;;;;;;;;;5113828;28;20020;-65
2023/05/11 06:20:34;;;;;;;5.93;2.65;;;;;;;;;;5112915;28;20526;-71
2023/05/11 06:23:00;;;;;;;8.30;3.10;;;;;;;;;;5113742;28;20087;-70
2023/05/11 06:25:26;;;;;;;7.63;3.00;;;;;;;;;;5113341;27;20047;-70
2023/05/11 06:27:52;;;;;;;9.57;3.00;;;;;;;;;;5113858;28;20023;-70
2023/05/11 06:30:18;;;;;;;6.57;3.10;;;;;;;;;;5112752;28;20031;-68
2023/05/11 06:32:44;;;;;;;9.02;3.33;;;;;;;;;;5112274;28;20372;-69
2023/05/11 06:35:10;;;;;;;6.80;2.70;;;;;;;;;;5112714;28;20035;-69
2023/05/11 06:37:36;;;;;;;9.20;3.90;;;;;;;;;;5111290;28;20032;-70
2023/05/11 06:40:03;;;;;;;12.40;4.13;;;;;;;;;;5111181;28;20024;-70
2023/05/11 06:42:29;;;;;;;6.75;3.33;;;;;;;;;;5111148;28;20031;-69
2023/05/11 06:44:55;;;;;;;9.55;3.97;;;;;;;;;;5109223;28;20019;-69
2023/05/11 06:47:21;;;;;;;11.15;3.83;;;;;;;;;;5111570;28;20027;-68
2023/05/11 06:49:47;;;;;;;17.67;3.90;;;;;;;;;;5111519;28;20051;-67
2023/05/11 06:52:13;;;;;;;7.30;3.42;;;;;;;;;;5111779;28;20023;-66
2023/05/11 06:54:39;;;;;;;10.43;3.30;;;;;;;;;;5111300;28;20027;-62
2023/05/11 06:57:05;;;;;;;7.53;3.58;;;;;;;;;;5108854;28;20024;-62
2023/05/11 06:59:31;;;;;;;10.73;3.15;;;;;;;;;;5111215;28;20045;-69
2023/05/11 07:01:57;;;;;;;6.03;3.03;;;;;;;;;;5111675;28;20027;-63
2023/05/11 07:04:23;;;;;;;8.77;3.50;;;;;;;;;;5111726;28;20027;-65
2023/05/11 07:06:49;;;;;;;6.70;3.10;;;;;;;;;;5110756;28;20023;-64
2023/05/11 07:09:15;;;;;;;5.82;3.20;;;;;;;;;;5111290;28;20080;-61
2023/05/11 07:11:41;;;;;;;6.68;3.33;;;;;;;;;;5111446;28;20019;-59
2023/05/11 07:14:07;;;;;;;6.03;3.50;;;;;;;;;;5110806;28;20694;-62
2023/05/11 07:16:37;;;;;;;6.97;2.72;;;;;;;;;;5110445;28;20015;-61
2023/05/11 07:19:07;;;;;;;10.85;4.05;;;;;;;;;;5110608;28;20027;-66
2023/05/11 07:21:34;;;;;;;7.65;3.00;;;;;;;;;;5110777;28;20474;-58
2023/05/11 07:24:00;;;;;;;7.63;3.35;;;;;;;;;;5110209;28;20027;-59
2023/05/11 07:26:26;;;;;;;13.85;3.88;;;;;;;;;;5108008;28;20102;-67
2023/05/11 07:28:52;;;;;;;11.32;3.65;;;;;;;;;;5108384;28;20778;-60
2023/05/11 07:31:18;;;;;;;9.02;3.17;;;;;;;;;;5108029;28;20032;-62
2023/05/11 07:33:43;;;;;;;7.20;3.08;;;;;;;;;;5110107;28;20030;-66
2023/05/11 07:36:10;;;;;;;7.90;3.30;;;;;;;;;;5108838;28;20027;-60
2023/05/11 07:38:36;;;;;;;6.65;3.10;;;;;;;;;;5107224;28;20027;-55
2023/05/11 07:41:02;;;;;;;9.80;3.90;;;;;;;;;;5108743;28;20088;-57
2023/05/11 07:43:29;;;;;;;5.72;3.03;;;;;;;;;;5107929;28;20057;-59
2023/05/11 07:45:55;;;;;;;8.88;3.20;;;;;;;;;;5108102;28;20024;-69
2023/05/11 07:48:21;;;;;;;6.72;3.05;;;;;;;;;;5109139;28;20031;-64
2023/05/11 07:50:48;;;;;;;6.32;2.88;;;;;;;;;;5109691;28;20444;-62
2023/05/11 07:53:14;;;;;;;7.38;4.28;;;;;;;;;;5110485;28;20031;-65
2023/05/11 07:55:40;;;;;;;8.32;3.00;;;;;;;;;;5107417;28;20084;-69
2023/05/11 07:58:06;;;;;;;6.97;3.10;;;;;;;;;;5107181;28;20107;-70
2023/05/11 08:00:33;;;;;;;7.10;3.50;;;;;;;;;;5107618;28;20490;-67
2023/05/11 08:02:59;;;;;;;8.45;4.85;;;;;;;;;;5107700;28;20786;-65
2023/05/11 08:05:25;;;;;;;6.07;2.97;;;;;;;;;;5107555;28;20024;-63
2023/05/11 08:07:51;;;;;;;8.23;3.45;;;;;;;;;;5107696;28;20481;-58
2023/05/11 08:10:17;;;;;;;8.73;3.38;;;;;;;;;;5107742;28;20119;-68
2023/05/11 08:12:43;;;;;;;8.75;3.65;;;;;;;;;;5107198;28;20483;-59
2023/05/11 08:15:10;;;;;;;9.05;3.22;;;;;;;;;;5107836;28;20055;-62
2023/05/11 08:17:36;;;;;;;5.10;3.22;;;;;;;;;;5108355;28;20053;-65
2023/05/11 08:20:02;;;;;;;10.02;4.05;;;;;;;;;;5109285;28;20115;-63
2023/05/11 08:22:29;;;;;;;4.38;3.08;;;;;;;;;;5110011;28;20038;-63
2023/05/11 08:24:55;;;;;;;6.95;3.30;;;;;;;;;;5111782;28;20149;-63
2023/05/11 08:27:21;;;;;;;7.45;3.47;;;;;;;;;;5107898;28;20106;-59
2023/05/11 08:29:47;;;;;;;8.88;3.85;;;;;;;;;;5107004;28;20035;-58
2023/05/11 08:32:13;;;;;;;5.90;3.38;;;;;;;;;;5109170;28;20088;-67
2023/05/11 08:34:39;;;;;;;7.28;3.35;;;;;;;;;;5107099;28;20547;-62
2023/05/11 08:37:05;;;;;;;6.97;3.90;;;;;;;;;;5107012;28;20053;-62
2023/05/11 08:39:33;;;;;;;8.75;3.35;;;;;;;;;;5107217;28;20067;-64
2023/05/11 08:42:01;;;;;;;7.00;3.15;;;;;;;;;;5109652;28;20575;-65
2023/05/11 08:44:28;;;;;;;6.80;3.13;;;;;;;;;;5107391;28;20032;-58
2023/05/11 08:46:54;;;;;;;6.47;3.17;;;;;;;;;;5108595;28;20497;-65
2023/05/11 08:49:20;;;;;;;9.20;3.95;;;;;;;;;;5108698;28;20533;-60
2023/05/11 08:51:46;;;;;;;6.90;3.08;;;;;;;;;;5106533;28;20031;-63
2023/05/11 08:54:12;;;;;;;7.15;3.63;;;;;;;;;;5108404;28;20098;-66
2023/05/11 08:56:40;;;;;;;6.53;2.92;;;;;;;;;;5110928;28;20100;-67
2023/05/11 08:59:06;;;;;;;4.53;2.80;;;;;;;;;;5109503;28;20038;-66
2023/05/11 09:01:34;;;;;;;9.05;3.35;;;;;;;;;;5106453;28;20046;-62
2023/05/11 09:04:00;;;;;;;7.28;4.20;;;;;;;;;;5107123;28;20040;-67
2023/05/11 09:06:26;;;;;;;5.97;3.38;;;;;;;;;;5106776;28;20364;-58
2023/05/11 09:08:53;;;;;;;8.60;3.05;;;;;;;;;;5107643;28;20027;-68
2023/05/11 09:11:19;;;;;;;4.78;3.33;;;;;;;;;;5111459;28;20081;-69
2023/05/11 09:13:45;;;;;;;6.10;3.20;;;;;;;;;;5110101;28;20437;-59
2023/05/11 09:16:12;;;;;;;6.50;3.40;;;;;;;;;;5110428;28;20020;-66
2023/05/11 09:18:58;;;;;;;6.40;2.88;;;;;;;;;;5112858;28;20032;-70
2023/05/11 09:21:24;;;;;;;6.68;3.80;;;;;;;;;;5114913;28;20436;-69
2023/05/11 09:23:51;;;;;;;8.35;3.65;;;;;;;;;;5113715;28;20084;-67
2023/05/11 09:26:19;;;;;;;7.20;4.15;;;;;;;;;;5114533;28;20221;-57
2023/05/11 09:28:56;;;;;;;6.95;3.72;;;;;;;;;;5114654;28;20099;-63
2023/05/11 09:31:39;;;;;;;5.50;3.40;;;;;;;;;;5115035;28;20050;-69
2023/05/11 09:34:12;;;;;;;6.10;2.83;;;;;;;;;;5114871;28;20024;-65
2023/05/11 09:36:38;;;;;;;4.90;3.70;;;;;;;;;;5113933;28;20023;-68
2023/05/11 09:39:04;;;;;;;7.13;2.88;;;;;;;;;;5114986;28;20425;-68
2023/05/11 09:41:31;;;;;;;7.70;3.33;;;;;;;;;;5114282;28;20127;-66
2023/05/11 09:44:10;;;;;;;6.22;3.00;;;;;;;;;;5113712;28;20479;-59
2023/05/11 09:46:37;;;;;;;6.80;3.22;;;;;;;;;;5113811;28;20050;-64
2023/05/11 09:49:03;;;;;;;5.20;3.25;;;;;;;;;;5114534;28;20043;-66
2023/05/11 09:51:31;;;;;;;4.90;2.83;;;;;;;;;;5113945;28;20027;-67
2023/05/11 09:53:57;;;;;;;7.20;3.22;;;;;;;;;;5114597;28;20031;-67
2023/05/11 09:56:23;;;;;;;7.97;4.20;;;;;;;;;;5114330;28;20023;-63
2023/05/11 09:58:50;;;;;;;6.03;2.83;;;;;;;;;;5113996;28;20070;-68
2023/05/11 10:01:17;;;;;;;6.93;3.67;;;;;;;;;;5114014;28;20407;-62
2023/05/11 10:03:52;;;;;;;9.05;3.40;;;;;;;;;;5113761;28;20027;-69
2023/05/11 10:06:19;;;;;;;4.78;3.08;;;;;;;;;;5113959;28;20155;-64
2023/05/11 10:08:45;;;;;;;5.03;3.00;;;;;;;;;;5113859;28;20035;-65
2023/05/11 10:11:11;;;;;;;6.38;3.00;;;;;;;;;;5113830;28;20024;-67
2023/05/11 10:13:37;;;;;;;6.30;2.85;;;;;;;;;;5113888;28;20034;-63
2023/05/11 10:16:04;;;;;;;7.07;3.05;;;;;;;;;;5113977;28;20061;-65
2023/05/11 10:18:31;;;;;;;5.65;2.88;;;;;;;;;;5113796;28;20024;-62
2023/05/11 10:20:58;;;;;;;6.03;3.45;;;;;;;;;;5113428;28;20035;-62
2023/05/11 10:23:24;;;;;;;6.07;3.78;;;;;;;;;;5113945;27;20062;-61
2023/05/11 10:25:51;;;;;;;4.85;3.05;;;;;;;;;;5113405;28;20081;-68
2023/05/11 10:28:17;;;;;;;5.50;2.70;;;;;;;;;;5112359;28;20084;-66
2023/05/11 10:30:44;;;;;;;7.07;3.33;;;;;;;;;;5113455;28;20031;-67
2023/05/11 10:33:10;;;;;;;6.55;4.53;;;;;;;;;;5113522;28;20019;-65
2023/05/11 10:35:37;;;;;;;7.05;3.55;;;;;;;;;;5113319;28;20020;-66
2023/05/11 10:38:05;;;;;;;6.28;4.05;;;;;;;;;;5113624;28;20098;-65
2023/05/11 10:40:34;;;;;;;7.72;3.80;;;;;;;;;;5113188;28;20039;-60
2023/05/11 10:43:14;;;;;;;11.82;5.43;;;;;;;;;;5113180;28;20034;-69
2023/05/11 10:45:46;;;;;;;10.52;3.13;;;;;;;;;;5113206;28;20494;-68
2023/05/11 10:48:15;;;;;;;14.32;3.20;;;;;;;;;;5113339;28;20031;-62
2023/05/11 10:51:00;;;;;;;8.23;2.65;;;;;;;;;;5112637;28;20391;-57
2023/05/11 10:53:36;;;;;;;5.47;2.78;;;;;;;;;;5099757;28;20023;-68
2023/05/11 10:56:09;;;;;;;7.00;2.95;;;;;;;;;;5108715;28;20072;-65
2023/05/11 10:58:47;;;;;;;10.00;3.58;;;;;;;;;;5112017;28;20064;-59
2023/05/11 11:01:26;;;;;;;4.00;2.40;;;;;;;;;;5113040;28;20073;-67
2023/05/11 11:04:01;;;;;;;11.02;2.92;;;;;;;;;;5112837;28;20073;-62
2023/05/11 11:06:28;;;;;;;5.25;2.88;;;;;;;;;;5102220;28;20023;-57
2023/05/11 11:08:58;;;;;;;6.93;2.78;;;;;;;;;;5113215;28;20028;-66
2023/05/11 11:11:28;;;;;;;7.20;2.88;;;;;;;;;;5112940;28;20023;-60
2023/05/11 11:14:00;;;;;;;10.05;3.17;;;;;;;;;;5113079;28;20034;-66
2023/05/11 11:16:26;;;;;;;4.65;2.40;;;;;;;;;;5113081;28;20024;-62
2023/05/11 11:19:12;;;;;;;3.70;2.35;;;;;;;;;;5116495;27;20483;-64
2023/05/11 11:21:40;;;;;;;6.78;3.30;;;;;;;;;;5132854;27;20499;-68
2023/05/11 11:24:06;;;;;;;5.70;2.72;;;;;;;;;;5132951;27;20471;-66
2023/05/11 11:26:49;;;;;;;6.38;2.67;;;;;;;;;;5121366;27;20031;-65
2023/05/11 11:29:15;;;;;;;9.15;2.90;;;;;;;;;;5110118;28;20104;-68
2023/05/11 11:31:41;;;;;;;3.65;2.10;;;;;;;;;;5110822;28;20442;-60
2023/05/11 11:34:26;;;;;;;4.57;2.65;;;;;;;;;;5112335;28;20031;-69
2023/05/11 11:36:59;;;;;;;6.25;2.88;;;;;;;;;;5112572;28;20039;-68
2023/05/11 11:39:26;;;;;;;6.30;2.70;;;;;;;;;;5112639;28;20024;-66
2023/05/11 11:42:01;;;;;;;5.65;2.65;;;;;;;;;;5110821;28;20100;-62
2023/05/11 11:44:27;;;;;;;3.72;2.22;;;;;;;;;;5111851;28;20024;-62
2023/05/11 11:47:20;;;;;;;4.68;2.75;;;;;;;;;;5111298;28;20063;-65
2023/05/11 11:49:47;;;;;;;6.00;2.60;;;;;;;;;;5107976;27;20040;-65
2023/05/11 11:52:14;;;;;;;5.43;3.28;;;;;;;;;;5110592;28;20098;-64
2023/05/11 11:54:40;;;;;;;9.20;3.35;;;;;;;;;;5110863;28;20108;-69
2023/05/11 11:57:32;;;;;;;5.22;2.95;;;;;;;;;;5111276;28;20102;-63
2023/05/11 12:00:05;;;;;;;5.53;3.08;;;;;;;;;;5110955;28;20114;-67
2023/05/11 12:02:32;;;;;;;5.45;3.00;;;;;;;;;;5111153;28;20114;-62
2023/05/11 12:05:00;;;;;;;5.35;2.97;;;;;;;;;;5110729;28;20077;-62
2023/05/11 12:07:32;;;;;;;6.05;3.63;;;;;;;;;;5111402;28;20110;-61
2023/05/11 12:09:58;;;;;;;6.38;3.17;;;;;;;;;;5111920;28;20051;-67
2023/05/11 12:12:24;;;;;;;5.57;3.17;;;;;;;;;;5112119;28;20503;-64
2023/05/11 12:14:50;;;;;;;6.45;3.45;;;;;;;;;;5111631;28;20020;-61
2023/05/11 12:17:24;;;;;;;3.75;2.85;;;;;;;;;;5111871;28;20383;-61
2023/05/11 12:19:50;;;;;;;6.55;2.90;;;;;;;;;;5111428;28;20024;-60
2023/05/11 12:22:21;;;;;;;4.25;2.95;;;;;;;;;;5111234;28;20376;-63
2023/05/11 12:24:47;;;;;;;6.88;3.30;;;;;;;;;;5111423;28;20027;-66
2023/05/11 12:27:17;;;;;;;4.75;2.78;;;;;;;;;;5111744;28;20028;-65
2023/05/11 12:29:47;;;;;;;5.57;2.90;;;;;;;;;;5111018;28;20027;-59
2023/05/11 12:32:13;;;;;;;4.93;2.65;;;;;;;;;;5111714;28;20028;-61
2023/05/11 12:34:39;;;;;;;6.47;2.80;;;;;;;;;;5111266;28;20016;-67
2023/05/11 12:37:07;;;;;;;5.70;2.85;;;;;;;;;;5111068;28;20032;-61
2023/05/11 12:39:34;;;;;;;7.97;3.50;;;;;;;;;;5111405;28;20019;-68
2023/05/11 12:42:00;;;;;;;4.47;2.95;;;;;;;;;;5111509;28;20031;-67
2023/05/11 12:44:27;;;;;;;4.68;2.78;;;;;;;;;;5115670;28;20440;-67
2023/05/11 12:46:53;;;;;;;5.53;2.75;;;;;;;;;;5115982;28;20039;-69
2023/05/11 12:49:20;;;;;;;4.53;3.05;;;;;;;;;;5114820;28;20498;-67
2023/05/11 12:51:55;;;;;;;5.80;2.88;;;;;;;;;;5115037;28;20024;-63
2023/05/11 12:54:31;;;;;;;5.82;3.13;;;;;;;;;;5114830;28;20514;-62
2023/05/11 12:56:58;;;;;;;8.25;3.42;;;;;;;;;;5115656;28;20076;-61
2023/05/11 12:59:37;;;;;;;5.85;2.92;;;;;;;;;;5115702;28;20028;-65
2023/05/11 13:02:06;;;;;;;4.10;3.10;;;;;;;;;;5114682;28;20093;-61
2023/05/11 13:04:32;;;;;;;4.03;3.10;;;;;;;;;;5114682;28;20376;-63
2023/05/11 13:06:58;;;;;;;5.95;2.92;;;;;;;;;;5115374;28;20034;-62
2023/05/11 13:09:27;;;;;;;4.80;2.95;;;;;;;;;;5115548;28;20026;-64
2023/05/11 13:12:12;;;;;;;6.25;2.47;;;;;;;;;;5115636;28;20088;-65
2023/05/11 13:14:38;;;;;;;7.55;3.33;;;;;;;;;;5114928;28;20510;-61
2023/05/11 13:17:04;;;;;;;5.10;2.92;;;;;;;;;;5115035;28;20463;-64
2023/05/11 13:19:32;;;;;;;6.78;3.80;;;;;;;;;;5114136;28;20483;-64
2023/05/11 13:21:58;;;;;;;8.52;2.95;;;;;;;;;;5114947;28;20047;-60
2023/05/11 13:24:25;;;;;;;3.40;2.83;;;;;;;;;;5115377;28;20190;-63
2023/05/11 13:26:51;;;;;;;5.47;3.20;;;;;;;;;;5114545;28;20063;-61
2023/05/11 13:29:17;;;;;;;5.00;3.28;;;;;;;;;;5113939;27;20553;-59
2023/05/11 13:31:43;;;;;;;4.75;3.03;;;;;;;;;;5114718;28;20399;-69
2023/05/11 13:34:09;;;;;;;7.22;3.40;;;;;;;;;;5114869;28;20023;-62
2023/05/11 13:36:35;;;;;;;4.95;3.10;;;;;;;;;;5114814;28;20031;-61
2023/05/11 13:39:01;;;;;;;5.72;3.30;;;;;;;;;;5114161;28;20030;-62
2023/05/11 13:41:27;;;;;;;6.28;3.35;;;;;;;;;;5114360;28;20391;-60
2023/05/11 13:43:53;;;;;;;5.70;3.38;;;;;;;;;;5113755;28;20036;-66
2023/05/11 13:46:19;;;;;;;4.38;3.22;;;;;;;;;;5114345;28;20104;-68
2023/05/11 13:48:45;;;;;;;6.07;3.83;;;;;;;;;;5114231;28;20019;-64
2023/05/11 13:51:11;;;;;;;7.22;3.67;;;;;;;;;;5114431;28;20394;-61
2023/05/11 13:53:37;;;;;;;4.60;2.95;;;;;;;;;;5113944;28;20057;-64
2023/05/11 13:56:03;;;;;;;6.07;2.92;;;;;;;;;;5113133;28;20104;-66
2023/05/11 13:58:29;;;;;;;6.90;4.45;;;;;;;;;;5114060;28;20035;-66
2023/05/11 14:00:55;;;;;;;5.63;3.78;;;;;;;;;;5114244;28;20020;-65
2023/05/11 14:03:22;;;;;;;6.80;6.10;;;;;;;;;;5114178;28;20494;-64
2023/05/11 14:05:48;;;;;;;6.40;3.88;;;;;;;;;;5113402;28;20023;-66
2023/05/11 14:08:14;;;;;;;6.80;5.13;;;;;;;;;;5114152;28;20039;-61
2023/05/11 14:10:40;;;;;;;6.38;4.75;;;;;;;;;;5113899;28;20047;-69
2023/05/11 14:13:07;;;;;;;6.93;5.05;;;;;;;;;;5114419;28;20027;-69
2023/05/11 14:15:33;;;;;;;6.10;4.55;;;;;;;;;;5113391;28;20015;-69
2023/05/11 14:18:02;;;;;;;10.13;5.53;;;;;;;;;;5101716;28;20028;-69
2023/05/11 14:20:28;;;;;;;9.48;5.72;;;;;;;;;;5093023;28;20510;-61
2023/05/11 14:22:54;;;;;;;7.47;4.15;;;;;;;;;;5094644;28;20392;-67
2023/05/11 14:25:20;;;;;;;6.05;4.78;;;;;;;;;;5113788;28;20020;-69
2023/05/11 14:27:48;;;;;;;5.22;3.53;;;;;;;;;;5112749;27;20024;-69
2023/05/11 14:30:14;;;;;;;4.65;3.10;;;;;;;;;;5112632;28;20031;-74
2023/05/11 14:32:40;;;;;;;9.00;3.40;;;;;;;;;;5112414;28;20487;-68
2023/05/11 14:35:06;;;;;;;5.35;4.35;;;;;;;;;;5113486;27;20479;-74
2023/05/11 14:37:32;;;;;;;7.88;4.25;;;;;;;;;;5113331;28;20031;-67
2023/05/11 14:39:58;;;;;;;4.20;3.28;;;;;;;;;;5113405;28;20068;-67
2023/05/11 14:42:24;;;;;;;6.45;2.70;;;;;;;;;;5112334;28;20092;-62
2023/05/11 14:44:50;;;;;;;4.40;3.50;;;;;;;;;;5109088;28;20436;-67